Headland, Alabama
Current Conditions -  °F | °C
As of 10:53 AM on Friday 24 Oct 2014 (Local Time) from KDHN Reporting Station
Clear Clear  
Wind Chill: 69°   Ceiling: Unl
Heat Index: 69°   Visibility: 10mi
Dew Point: 44°   Wind: 5mph
Humidity: 40%   Direction: 330°NNW
Pressure: 30.1"   Gusts: NA
Location:  31.35°N, 85.34°W
Report Text: KDHN 241553Z 33004KT 10SM CLR 21/07 A3010 RMK AO2 SLP190 T02060067
Loading
Personal Weather Stations






























Interactive Weather Map
Tropical Storm Tracking
New forecast layout! Learn more

10-Day Weather Forecast

Advertisements
Track Severe Weather on mobile